Time;durP1;ratioP1;P1;durP2;ratioP2;P2;SDS_P1;SDS_P2;PMS_P1;PMS_P2;Temp;Humidity;BMP_temperature;BMP_pressure;BME280_temperature;BME280_humidity;BME280_pressure;Samples;Min_cycle;Max_cycle;Signal;HPM_P1;HPM_P2
2023/08/27 00:00:47;;;;;;;1.83;1.48;;;21.60;98.80;;;;;;9711579;22;20157;-88
2023/08/27 00:04:33;;;;;;;3.05;2.03;;;21.60;98.90;;;;;;9711268;22;20220;-90
2023/08/27 00:08:19;;;;;;;5.22;1.95;;;21.60;99.10;;;;;;9705452;22;20160;-88
2023/08/27 00:12:04;;;;;;;2.30;1.92;;;21.50;99.10;;;;;;9710989;22;20193;-90
2023/08/27 00:15:52;;;;;;;2.25;2.03;;;21.50;99.30;;;;;;9710833;22;20195;-87
2023/08/27 00:19:38;;;;;;;3.55;2.20;;;21.50;99.40;;;;;;9711170;22;20145;-89
2023/08/27 00:23:24;;;;;;;1.80;1.70;;;21.50;99.40;;;;;;9711294;22;20180;-89
2023/08/27 00:27:10;;;;;;;5.30;2.20;;;21.40;99.60;;;;;;9710768;22;20180;-89
2023/08/27 00:31:05;;;;;;;2.25;1.73;;;21.40;99.60;;;;;;9711524;22;20161;-88
2023/08/27 00:34:51;;;;;;;5.15;1.95;;;21.40;99.70;;;;;;9711226;22;20183;-88
2023/08/27 00:38:37;;;;;;;2.70;2.00;;;21.40;99.80;;;;;;9711072;22;20153;-89
2023/08/27 00:42:23;;;;;;;3.90;2.05;;;21.40;99.80;;;;;;9711265;22;20247;-89
2023/08/27 00:46:09;;;;;;;2.60;2.00;;;21.40;99.90;;;;;;9710785;22;20184;-89
2023/08/27 00:49:55;;;;;;;3.45;2.10;;;21.20;99.90;;;;;;9711164;22;20252;-90
2023/08/27 00:53:41;;;;;;;5.45;1.90;;;21.10;99.90;;;;;;9711192;22;20192;-89
2023/08/27 00:57:27;;;;;;;2.97;2.00;;;21.10;99.90;;;;;;9737685;22;20478;-88
2023/08/27 01:01:15;;;;;;;2.75;1.90;;;21.20;99.90;;;;;;9711223;22;20735;-89
2023/08/27 01:05:01;;;;;;;4.05;1.90;;;21.10;99.90;;;;;;9738204;22;20181;-89
2023/08/27 01:08:57;;;;;;;2.53;2.00;;;21.10;99.90;;;;;;9711155;22;20164;-88
2023/08/27 01:13:03;;;;;;;4.32;1.95;;;21.10;99.90;;;;;;9711209;22;20187;-89
2023/08/27 01:16:50;;;;;;;3.60;2.00;;;21.10;99.90;;;;;;9737287;22;20204;-89
2023/08/27 01:20:36;;;;;;;4.07;2.28;;;21.10;99.90;;;;;;9711162;22;20239;-89
2023/08/27 01:24:21;;;;;;;3.78;1.80;;;21.10;99.90;;;;;;9710720;22;20219;-90
2023/08/27 01:28:15;;;;;;;3.00;1.90;;;21.00;99.90;;;;;;9723981;22;20175;-88
2023/08/27 01:32:06;;;;;;;3.10;2.15;;;21.00;99.90;;;;;;9784633;22;20180;-87
2023/08/27 01:35:52;;;;;;;3.65;2.17;;;21.00;99.90;;;;;;9736370;22;20219;-88
2023/08/27 01:39:37;;;;;;;3.40;2.20;;;20.90;99.90;;;;;;9712577;22;20191;-89
2023/08/27 01:43:23;;;;;;;2.75;2.15;;;20.90;99.90;;;;;;9710175;22;20234;-88
2023/08/27 01:47:08;;;;;;;1.88;1.70;;;20.80;99.90;;;;;;9709872;22;20818;-89
2023/08/27 01:50:54;;;;;;;4.35;2.20;;;20.90;99.90;;;;;;9710340;22;20231;-88
2023/08/27 01:54:40;;;;;;;3.15;2.20;;;20.80;99.90;;;;;;9709878;22;20195;-89
2023/08/27 01:58:25;;;;;;;2.33;2.03;;;20.80;99.90;;;;;;9709887;22;20157;-88
2023/08/27 02:02:11;;;;;;;4.63;2.67;;;20.70;99.90;;;;;;9710806;22;20218;-88
2023/08/27 02:05:56;;;;;;;4.85;2.22;;;20.80;99.90;;;;;;9710047;22;20196;-89
2023/08/27 02:09:42;;;;;;;3.65;2.03;;;20.70;99.90;;;;;;9709926;22;20622;-89
2023/08/27 02:13:28;;;;;;;3.20;2.65;;;20.70;99.90;;;;;;9736652;22;20802;-89
2023/08/27 02:17:14;;;;;;;4.00;2.30;;;20.70;99.90;;;;;;9709680;22;20239;-89
2023/08/27 02:20:59;;;;;;;2.50;1.90;;;20.70;99.90;;;;;;9710115;22;20153;-88
2023/08/27 02:24:45;;;;;;;3.88;2.42;;;20.70;99.90;;;;;;9709510;22;20252;-87
2023/08/27 02:28:32;;;;;;;2.63;2.05;;;20.70;99.90;;;;;;9709295;22;20218;-88
2023/08/27 02:32:18;;;;;;;3.30;2.30;;;20.60;99.90;;;;;;9736657;22;20172;-88
2023/08/27 02:36:04;;;;;;;2.85;2.30;;;20.60;99.90;;;;;;9709122;22;20177;-88
2023/08/27 02:39:49;;;;;;;2.60;2.40;;;20.60;99.90;;;;;;9709227;22;20187;-88
2023/08/27 02:43:35;;;;;;;4.63;2.45;;;20.60;99.90;;;;;;9709837;22;20203;-89
2023/08/27 02:47:21;;;;;;;2.33;2.08;;;20.60;99.90;;;;;;9736004;22;20160;-88
2023/08/27 02:51:06;;;;;;;3.35;2.38;;;20.50;99.90;;;;;;9709846;22;20167;-88
2023/08/27 02:54:52;;;;;;;6.88;2.20;;;20.50;99.90;;;;;;9708981;22;20261;-88
2023/08/27 02:58:37;;;;;;;3.85;2.20;;;20.50;99.90;;;;;;9708894;22;20159;-88
2023/08/27 03:02:24;;;;;;;3.85;2.35;;;20.50;99.90;;;;;;9736896;22;20152;-88
2023/08/27 03:06:10;;;;;;;2.25;2.05;;;20.40;99.90;;;;;;9736282;22;20557;-89
2023/08/27 03:09:56;;;;;;;4.70;2.40;;;20.40;99.90;;;;;;9708755;22;20489;-88
2023/08/27 03:13:41;;;;;;;2.75;2.08;;;20.30;99.90;;;;;;9709473;22;20506;-89
2023/08/27 03:17:27;;;;;;;4.75;2.17;;;20.20;99.90;;;;;;9736123;22;20178;-89
2023/08/27 03:21:13;;;;;;;4.65;2.30;;;20.20;99.90;;;;;;9709589;22;20721;-89
2023/08/27 03:25:00;;;;;;;5.32;2.30;;;20.20;99.90;;;;;;9709429;22;20176;-89
2023/08/27 03:28:46;;;;;;;3.22;2.30;;;20.20;99.90;;;;;;9709081;22;20202;-88
2023/08/27 03:32:32;;;;;;;4.65;2.08;;;20.10;99.90;;;;;;9709705;22;20188;-88
2023/08/27 03:36:17;;;;;;;4.20;2.10;;;20.10;99.90;;;;;;9709218;22;20263;-88
2023/08/27 03:40:03;;;;;;;3.60;2.33;;;20.10;99.90;;;;;;9735783;22;20145;-88
2023/08/27 03:43:49;;;;;;;4.72;2.38;;;20.10;99.90;;;;;;9709365;22;20208;-88
2023/08/27 03:47:35;;;;;;;4.45;2.38;;;20.10;99.90;;;;;;9708081;22;20156;-89
2023/08/27 03:51:20;;;;;;;2.33;2.13;;;20.10;99.90;;;;;;9709208;22;20612;-88
2023/08/27 03:55:06;;;;;;;3.58;2.20;;;20.00;99.90;;;;;;9708837;22;20177;-89
2023/08/27 03:58:52;;;;;;;4.38;2.13;;;20.00;99.90;;;;;;9708783;22;20156;-89
2023/08/27 04:02:37;;;;;;;4.15;2.00;;;20.00;99.90;;;;;;9736138;22;20149;-88
2023/08/27 04:06:23;;;;;;;3.13;2.05;;;20.00;99.90;;;;;;9709991;22;20198;-88
2023/08/27 04:10:09;;;;;;;4.20;2.20;;;19.90;99.90;;;;;;9711752;22;20165;-87
2023/08/27 04:13:54;;;;;;;3.58;2.30;;;19.90;99.90;;;;;;9711573;22;20188;-88
2023/08/27 04:17:40;;;;;;;2.85;2.00;;;19.90;99.90;;;;;;9711177;22;20157;-89
2023/08/27 04:21:26;;;;;;;5.47;2.28;;;19.90;99.90;;;;;;9738703;22;20157;-90
2023/08/27 04:25:14;;;;;;;5.75;2.55;;;19.80;99.90;;;;;;9711285;22;20523;-88
2023/08/27 04:29:00;;;;;;;3.10;2.20;;;19.80;99.90;;;;;;9710636;22;20234;-89
2023/08/27 04:32:45;;;;;;;5.43;2.55;;;19.80;99.90;;;;;;9738918;22;20176;-89
2023/08/27 04:36:31;;;;;;;5.97;2.50;;;19.80;99.90;;;;;;9711084;22;20173;-89
2023/08/27 04:40:17;;;;;;;4.18;2.28;;;19.80;99.90;;;;;;9738577;22;20180;-88
2023/08/27 04:44:02;;;;;;;4.93;2.20;;;19.80;99.90;;;;;;9738274;22;20172;-89
2023/08/27 04:47:48;;;;;;;2.33;2.13;;;19.80;99.90;;;;;;9711558;22;20786;-89
2023/08/27 04:51:34;;;;;;;6.78;2.70;;;19.80;99.90;;;;;;9739177;22;20521;-89
2023/08/27 04:55:20;;;;;;;9.35;2.50;;;19.80;99.90;;;;;;9712155;22;20180;-88
2023/08/27 04:59:06;;;;;;;3.53;2.35;;;19.80;99.90;;;;;;9735822;22;20160;-90
2023/08/27 05:02:51;;;;;;;5.18;2.28;;;19.70;99.90;;;;;;9758644;22;20171;-90
2023/08/27 05:06:37;;;;;;;7.30;2.53;;;19.70;99.90;;;;;;9726313;22;20192;-88
2023/08/27 05:10:23;;;;;;;2.65;1.92;;;19.70;99.90;;;;;;9714722;22;20211;-88
2023/08/27 05:14:09;;;;;;;3.08;2.30;;;19.70;99.90;;;;;;9713886;22;20188;-88
2023/08/27 05:17:54;;;;;;;3.42;2.67;;;19.70;99.90;;;;;;9722682;22;20157;-90
2023/08/27 05:21:40;;;;;;;4.85;2.33;;;19.60;99.90;;;;;;9723561;22;20157;-89
2023/08/27 05:25:26;;;;;;;2.70;2.50;;;19.70;99.90;;;;;;9722533;22;20180;-89
2023/08/27 05:29:11;;;;;;;3.05;2.22;;;19.70;99.90;;;;;;9721387;22;20247;-88
2023/08/27 05:32:57;;;;;;;3.33;2.65;;;19.70;99.90;;;;;;9721980;22;20521;-88
2023/08/27 05:36:42;;;;;;;3.63;2.17;;;19.60;99.90;;;;;;9721050;22;20176;-90
2023/08/27 05:40:28;;;;;;;3.78;2.40;;;19.70;99.90;;;;;;9716736;22;20152;-89
2023/08/27 05:44:14;;;;;;;2.90;2.30;;;19.60;99.90;;;;;;9711059;22;20250;-89
2023/08/27 05:47:59;;;;;;;3.45;2.30;;;19.60;99.90;;;;;;9710611;22;20235;-88
2023/08/27 05:51:46;;;;;;;2.88;2.10;;;19.60;99.90;;;;;;9710997;22;20180;-89
2023/08/27 05:55:33;;;;;;;2.75;2.10;;;19.60;99.90;;;;;;9710662;22;20180;-88
2023/08/27 05:59:19;;;;;;;4.15;2.33;;;19.60;99.90;;;;;;9709679;22;20153;-88
2023/08/27 06:03:04;;;;;;;2.83;2.40;;;19.60;99.90;;;;;;9710459;22;20591;-88
2023/08/27 06:06:50;;;;;;;6.85;2.83;;;19.60;99.90;;;;;;9709543;22;20592;-89
2023/08/27 06:10:36;;;;;;;7.95;2.45;;;19.60;99.90;;;;;;9709963;22;20180;-88
2023/08/27 06:14:22;;;;;;;3.78;2.65;;;19.60;99.90;;;;;;9709666;22;20199;-89
2023/08/27 06:18:08;;;;;;;5.70;2.65;;;19.60;99.90;;;;;;9709826;22;20188;-88
2023/08/27 06:21:54;;;;;;;3.30;2.45;;;19.50;99.90;;;;;;9710159;22;20160;-90
2023/08/27 06:25:39;;;;;;;4.50;2.75;;;19.50;99.90;;;;;;9709877;22;20255;-88
2023/08/27 06:29:25;;;;;;;3.00;2.60;;;19.50;99.90;;;;;;9709243;22;20244;-90
2023/08/27 06:33:11;;;;;;;4.82;2.53;;;19.50;99.90;;;;;;9737005;22;20179;-89
2023/08/27 06:36:57;;;;;;;4.25;2.38;;;19.40;99.90;;;;;;9709311;22;20209;-90
2023/08/27 06:40:43;;;;;;;2.55;2.20;;;19.40;99.90;;;;;;9710081;22;20161;-89
2023/08/27 06:44:28;;;;;;;7.30;2.47;;;19.40;99.90;;;;;;9710406;22;20176;-90
2023/08/27 06:48:15;;;;;;;5.25;2.67;;;19.50;99.90;;;;;;9709655;22;20160;-89
2023/08/27 06:52:01;;;;;;;5.28;2.80;;;19.50;99.90;;;;;;9736808;22;20176;-89
2023/08/27 06:55:46;;;;;;;3.20;2.70;;;19.60;99.90;;;;;;9709354;22;20173;-89
2023/08/27 06:59:32;;;;;;;6.07;3.03;;;19.60;99.90;;;;;;9709532;22;20664;-89
2023/08/27 07:03:19;;;;;;;4.22;2.90;;;19.50;99.90;;;;;;9709716;22;20199;-89
2023/08/27 07:07:05;;;;;;;4.15;2.90;;;19.50;99.90;;;;;;9709105;22;20172;-89
2023/08/27 07:10:50;;;;;;;4.30;2.92;;;19.50;99.90;;;;;;9709873;22;20167;-90
2023/08/27 07:14:36;;;;;;;5.57;3.30;;;19.50;99.90;;;;;;9708984;22;20188;-89
2023/08/27 07:18:22;;;;;;;4.18;2.70;;;19.50;99.90;;;;;;9709635;22;20152;-89
2023/08/27 07:22:07;;;;;;;3.63;2.90;;;19.50;99.90;;;;;;9709790;22;20156;-89
2023/08/27 07:25:53;;;;;;;4.30;2.67;;;19.50;99.90;;;;;;9736708;22;20624;-89
2023/08/27 07:29:38;;;;;;;3.95;2.65;;;19.50;99.90;;;;;;9709687;22;20240;-89
2023/08/27 07:33:24;;;;;;;3.38;2.67;;;19.50;99.90;;;;;;9710367;22;20573;-89
2023/08/27 07:37:10;;;;;;;4.10;2.70;;;19.50;99.90;;;;;;9711187;22;20191;-89
2023/08/27 07:40:55;;;;;;;4.70;3.05;;;19.60;99.90;;;;;;9740365;22;20156;-89
2023/08/27 07:44:41;;;;;;;4.22;2.92;;;19.60;99.90;;;;;;9721184;22;20639;-90
2023/08/27 07:48:31;;;;;;;5.57;2.75;;;19.60;99.90;;;;;;9739424;22;20145;-89
2023/08/27 07:52:17;;;;;;;5.07;2.85;;;19.60;99.90;;;;;;9724573;22;20205;-88
2023/08/27 07:56:02;;;;;;;3.72;2.90;;;19.50;99.90;;;;;;9712620;22;20654;-89
2023/08/27 07:59:49;;;;;;;4.07;2.85;;;19.50;99.90;;;;;;9712369;22;20167;-89
2023/08/27 08:03:34;;;;;;;5.22;3.30;;;19.50;99.90;;;;;;9712379;22;20207;-89
2023/08/27 08:07:20;;;;;;;4.90;3.40;;;19.50;99.90;;;;;;9739172;22;20137;-89
2023/08/27 08:11:06;;;;;;;3.47;3.13;;;19.50;99.90;;;;;;9712811;22;20157;-90
2023/08/27 08:14:52;;;;;;;5.93;4.20;;;19.50;99.90;;;;;;9712298;22;20192;-90
2023/08/27 08:18:38;;;;;;;3.83;3.10;;;19.50;99.90;;;;;;9712582;22;20202;-89
2023/08/27 08:22:23;;;;;;;5.13;3.70;;;19.40;99.90;;;;;;9712491;22;20156;-88
2023/08/27 08:26:09;;;;;;;4.70;3.15;;;19.40;99.90;;;;;;9712328;22;20172;-89
2023/08/27 08:29:55;;;;;;;4.13;3.42;;;19.40;99.90;;;;;;9737720;22;20236;-91
2023/08/27 08:33:40;;;;;;;7.38;5.43;;;19.50;99.90;;;;;;9785822;22;20196;-90
2023/08/27 08:37:26;;;;;;;7.35;5.40;;;19.50;99.90;;;;;;9726750;22;20165;-89
2023/08/27 08:41:22;;;;;;;6.85;4.20;;;19.40;99.90;;;;;;9713600;22;20188;-88
2023/08/27 08:45:13;;;;;;;4.50;3.60;;;19.50;99.90;;;;;;9711413;22;20168;-89
2023/08/27 08:49:02;;;;;;;4.35;3.92;;;19.50;99.90;;;;;;9738422;22;20156;-89
2023/08/27 08:52:50;;;;;;;6.32;4.13;;;19.60;99.90;;;;;;9710830;22;20185;-89
2023/08/27 08:56:44;;;;;;;7.07;4.75;;;19.70;99.90;;;;;;9710821;22;20196;-89
2023/08/27 09:00:30;;;;;;;8.07;5.50;;;19.70;99.90;;;;;;9711420;22;20141;-90
2023/08/27 09:04:16;;;;;;;9.82;5.72;;;19.80;99.90;;;;;;9738449;22;20188;-89
2023/08/27 09:08:04;;;;;;;9.65;7.45;;;19.80;99.90;;;;;;9711212;22;20616;-89
2023/08/27 09:11:51;;;;;;;11.50;8.07;;;19.90;99.90;;;;;;9711277;22;20222;-89
2023/08/27 09:15:37;;;;;;;10.10;7.47;;;20.00;99.90;;;;;;9710927;22;20569;-89
2023/08/27 09:19:23;;;;;;;9.57;7.70;;;20.00;99.90;;;;;;9712591;22;20164;-89
2023/08/27 09:23:09;;;;;;;12.57;7.82;;;20.00;99.90;;;;;;9711395;22;20600;-89
2023/08/27 09:26:55;;;;;;;10.25;8.05;;;19.90;99.90;;;;;;9737373;22;20487;-89
2023/08/27 09:30:41;;;;;;;9.52;7.72;;;20.00;99.90;;;;;;9737907;22;20166;-89
2023/08/27 09:34:26;;;;;;;11.55;8.00;;;19.90;99.90;;;;;;9737808;22;20192;-89
2023/08/27 09:38:14;;;;;;;9.32;6.40;;;19.90;99.90;;;;;;9737388;22;20164;-89
2023/08/27 09:42:00;;;;;;;14.88;8.50;;;20.00;99.90;;;;;;9710978;22;20153;-89
2023/08/27 09:45:46;;;;;;;11.77;8.32;;;20.00;99.90;;;;;;9710476;22;20183;-89
2023/08/27 09:49:31;;;;;;;12.68;9.02;;;20.10;99.90;;;;;;9709804;22;20239;-89
2023/08/27 09:53:18;;;;;;;15.13;10.07;;;20.20;99.90;;;;;;9710515;22;20181;-89
2023/08/27 09:57:03;;;;;;;13.57;9.57;;;20.20;99.90;;;;;;9737348;22;20604;-89
2023/08/27 10:00:49;;;;;;;11.88;8.82;;;20.20;99.90;;;;;;9710767;22;20496;-89
2023/08/27 10:04:52;;;;;;;12.05;9.05;;;20.20;99.90;;;;;;9710119;22;20230;-89
2023/08/27 10:08:54;;;;;;;19.10;11.70;;;20.20;99.90;;;;;;9711194;22;20153;-90
2023/08/27 10:12:39;;;;;;;13.88;9.52;;;20.20;99.90;;;;;;9710612;22;20185;-89
2023/08/27 10:16:28;;;;;;;15.10;10.13;;;20.20;99.90;;;;;;9710129;22;20173;-90
2023/08/27 10:20:15;;;;;;;15.10;10.25;;;20.30;99.90;;;;;;9713601;22;20239;-90
2023/08/27 10:24:02;;;;;;;13.38;10.55;;;20.30;99.90;;;;;;9710502;22;20230;-90
2023/08/27 10:27:49;;;;;;;11.60;8.60;;;20.30;99.90;;;;;;9711899;22;20161;-89
2023/08/27 10:31:37;;;;;;;12.07;9.50;;;20.30;99.90;;;;;;9739152;22;20172;-88
2023/08/27 10:35:23;;;;;;;13.98;10.57;;;20.40;99.90;;;;;;9737567;22;20168;-88
2023/08/27 10:39:09;;;;;;;16.15;11.15;;;20.50;99.90;;;;;;9708746;22;20156;-86
2023/08/27 10:43:09;;;;;;;15.25;11.00;;;20.70;99.90;;;;;;9709415;22;20540;-88
2023/08/27 10:47:12;;;;;;;15.73;11.05;;;20.80;99.90;;;;;;9708040;22;20163;-88
2023/08/27 10:51:11;;;;;;;17.40;11.18;;;20.90;99.90;;;;;;9708099;22;20232;-88
2023/08/27 10:55:01;;;;;;;15.43;11.40;;;21.00;99.90;;;;;;9710885;22;20202;-88
2023/08/27 10:58:47;;;;;;;14.95;10.18;;;21.10;99.90;;;;;;9710475;22;20169;-88
2023/08/27 11:02:57;;;;;;;16.55;11.40;;;21.30;99.90;;;;;;9712179;22;20156;-89
2023/08/27 11:06:45;;;;;;;19.00;12.95;;;21.40;99.90;;;;;;9709121;22;20279;-91
2023/08/27 11:10:32;;;;;;;19.98;11.55;;;21.40;99.90;;;;;;9709823;22;20153;-92
2023/08/27 11:14:21;;;;;;;20.55;12.00;;;21.50;99.90;;;;;;9685636;22;20199;-93
2023/08/27 11:18:22;;;;;;;16.70;11.23;;;21.60;99.90;;;;;;9688983;22;20375;-93
2023/08/27 11:22:19;;;;;;;16.50;11.88;;;21.70;99.90;;;;;;9714599;22;20171;-93
2023/08/27 11:26:05;;;;;;;17.23;12.00;;;21.80;99.90;;;;;;9716089;22;20176;-92
2023/08/27 11:30:08;;;;;;;20.27;12.20;;;21.90;99.90;;;;;;9746254;22;20153;-93
2023/08/27 11:33:55;;;;;;;16.10;11.32;;;21.80;99.90;;;;;;9740154;22;20172;-94
2023/08/27 11:37:41;;;;;;;17.60;11.50;;;21.80;99.90;;;;;;9756131;22;20268;-94
2023/08/27 11:41:47;;;;;;;16.42;10.70;;;21.80;99.90;;;;;;9745049;22;20630;-93
2023/08/27 11:45:40;;;;;;;17.05;11.52;;;21.80;99.90;;;;;;9714399;22;20284;-93
2023/08/27 11:49:30;;;;;;;17.67;12.50;;;21.90;99.90;;;;;;9713959;22;20211;-91
2023/08/27 11:53:16;;;;;;;18.50;12.63;;;21.90;99.90;;;;;;9715721;22;20639;-93
2023/08/27 11:57:35;;;;;;;15.40;11.88;;;21.90;99.90;;;;;;9711666;22;20602;-92
2023/08/27 12:01:24;;;;;;;15.65;12.27;;;22.00;99.90;;;;;;9710974;22;20157;-92
2023/08/27 12:05:33;;;;;;;15.40;11.10;;;21.90;99.90;;;;;;9713127;22;20230;-91
2023/08/27 12:09:27;;;;;;;15.98;12.05;;;21.90;99.90;;;;;;9712430;22;20221;-93
2023/08/27 12:13:13;;;;;;;17.45;11.95;;;22.00;99.90;;;;;;9712940;22;20207;-91
2023/08/27 12:17:10;;;;;;;16.40;11.23;;;22.00;99.90;;;;;;9713760;22;20789;-95
2023/08/27 12:21:03;;;;;;;15.15;11.60;;;22.00;99.90;;;;;;9724320;22;20152;-92
2023/08/27 12:24:49;;;;;;;15.48;12.00;;;22.10;99.90;;;;;;9713416;22;20230;-93
2023/08/27 12:28:35;;;;;;;13.25;10.40;;;22.00;99.90;;;;;;9713063;22;20157;-93
2023/08/27 12:32:22;;;;;;;15.15;10.40;;;22.00;99.90;;;;;;9713439;22;20321;-92
2023/08/27 12:36:08;;;;;;;12.05;9.82;;;22.10;99.90;;;;;;9712519;22;20176;-92
2023/08/27 12:39:55;;;;;;;13.02;9.70;;;22.20;99.90;;;;;;9711346;22;20153;-92
2023/08/27 12:43:41;;;;;;;11.73;9.35;;;22.10;99.90;;;;;;9713838;22;20164;-92
2023/08/27 12:47:27;;;;;;;11.18;9.35;;;22.20;99.90;;;;;;9712747;22;20181;-92
2023/08/27 12:51:13;;;;;;;13.60;10.30;;;22.10;99.90;;;;;;9712856;22;20637;-93
2023/08/27 12:54:59;;;;;;;12.15;8.73;;;22.20;99.90;;;;;;9687321;22;20223;-90
2023/08/27 12:58:45;;;;;;;13.32;9.25;;;22.10;99.90;;;;;;9713546;22;20157;-92
2023/08/27 13:02:30;;;;;;;10.23;8.32;;;22.20;99.90;;;;;;9715404;22;20168;-92
2023/08/27 13:06:16;;;;;;;6.70;4.70;;;22.20;99.90;;;;;;9712094;22;20512;-92
2023/08/27 13:10:06;;;;;;;5.10;3.22;;;21.90;99.90;;;;;;9711785;22;20263;-93
2023/08/27 13:13:52;;;;;;;4.47;3.20;;;21.70;99.90;;;;;;9712330;22;20187;-93
2023/08/27 13:17:42;;;;;;;6.97;3.15;;;21.50;99.90;;;;;;9712990;22;20172;-93
2023/08/27 13:21:41;;;;;;;7.72;3.00;;;21.30;99.90;;;;;;9714993;22;20199;-94
2023/08/27 13:25:46;;;;;;;3.80;2.40;;;21.20;99.90;;;;;;9713270;22;20176;-93
2023/08/27 13:29:36;;;;;;;4.78;2.50;;;21.10;99.90;;;;;;9714628;22;20145;-93
2023/08/27 13:33:40;;;;;;;4.05;2.75;;;21.20;99.90;;;;;;9712898;22;20801;-93
2023/08/27 13:37:26;;;;;;;3.20;1.90;;;21.10;99.90;;;;;;9713214;22;20230;-94
2023/08/27 13:41:12;;;;;;;4.82;1.88;;;21.10;99.90;;;;;;9712836;22;20145;-93
2023/08/27 13:44:58;;;;;;;4.65;3.00;;;21.20;99.90;;;;;;9714423;22;20181;-94
2023/08/27 13:48:46;;;;;;;5.22;4.13;;;21.30;99.90;;;;;;9713838;22;20235;-95
2023/08/27 13:52:32;;;;;;;7.13;5.20;;;21.20;99.90;;;;;;9713958;22;20187;-93
2023/08/27 13:56:19;;;;;;;7.88;4.97;;;21.20;99.90;;;;;;9711646;22;20168;-94
2023/08/27 14:00:16;;;;;;;7.57;4.50;;;21.10;99.90;;;;;;9713993;22;20199;-94
2023/08/27 14:04:20;;;;;;;10.05;6.20;;;21.00;99.90;;;;;;9712874;22;20542;-93
2023/08/27 14:08:25;;;;;;;9.13;5.05;;;21.00;99.90;;;;;;9712588;22;20215;-93
2023/08/27 14:12:11;;;;;;;11.43;6.55;;;21.00;99.90;;;;;;9713426;22;20510;-93
2023/08/27 14:15:57;;;;;;;7.68;6.25;;;20.90;99.90;;;;;;9713174;22;20176;-93
2023/08/27 14:19:43;;;;;;;8.43;6.22;;;20.90;99.90;;;;;;9711964;22;20153;-93
2023/08/27 14:24:01;;;;;;;10.75;7.45;;;20.90;99.90;;;;;;9712158;22;20596;-92
2023/08/27 14:28:25;;;;;;;9.55;7.32;;;21.00;99.90;;;;;;9712905;22;20573;-94
2023/08/27 14:32:10;;;;;;;6.47;3.95;;;20.80;99.90;;;;;;9712633;22;20677;-91
2023/08/27 14:35:56;;;;;;;8.70;4.20;;;20.70;99.90;;;;;;9739106;22;20165;-93
2023/08/27 14:39:45;;;;;;;5.57;3.60;;;20.60;99.90;;;;;;9712107;22;20202;-94
2023/08/27 14:43:32;;;;;;;4.15;3.35;;;20.50;99.90;;;;;;9712659;22;20239;-93
2023/08/27 14:47:17;;;;;;;5.32;3.80;;;20.60;99.90;;;;;;9712108;22;20191;-93
2023/08/27 14:51:03;;;;;;;7.05;3.33;;;20.50;99.90;;;;;;9712384;22;20175;-93
2023/08/27 14:54:49;;;;;;;5.85;4.03;;;20.60;99.90;;;;;;9710767;22;20196;-93
2023/08/27 14:58:51;;;;;;;8.73;4.22;;;20.60;99.90;;;;;;9711065;22;20157;-92
2023/08/27 15:02:36;;;;;;;8.90;4.07;;;20.70;99.90;;;;;;9710985;22;20159;-92
2023/08/27 15:06:25;;;;;;;5.85;3.55;;;20.60;99.90;;;;;;9711210;22;20267;-92
2023/08/27 15:10:18;;;;;;;5.97;3.72;;;20.50;99.90;;;;;;9711682;22;20183;-92
2023/08/27 15:14:04;;;;;;;3.72;2.70;;;20.50;99.90;;;;;;9711437;22;20187;-93
2023/08/27 15:17:50;;;;;;;3.28;2.90;;;20.50;99.90;;;;;;9711172;22;20211;-92
2023/08/27 15:21:35;;;;;;;5.00;2.50;;;20.30;99.90;;;;;;9711483;22;20160;-90
2023/08/27 15:25:45;;;;;;;5.82;2.58;;;20.10;99.90;;;;;;9711733;22;20255;-92
2023/08/27 15:29:31;;;;;;;3.08;2.60;;;20.20;99.90;;;;;;9710624;22;20157;-93
2023/08/27 15:33:16;;;;;;;5.15;2.88;;;20.30;99.90;;;;;;9710931;22;20184;-92
2023/08/27 15:37:02;;;;;;;5.15;2.67;;;20.40;99.90;;;;;;9711865;22;20176;-93
2023/08/27 15:40:52;;;;;;;3.78;2.60;;;20.20;99.90;;;;;;9710491;22;20153;-93
2023/08/27 15:44:39;;;;;;;4.28;2.20;;;20.20;99.90;;;;;;9710230;22;20161;-93
2023/08/27 15:48:34;;;;;;;3.25;2.30;;;20.30;99.90;;;;;;9737603;22;20141;-92
2023/08/27 15:52:19;;;;;;;2.92;2.00;;;20.30;99.90;;;;;;9710510;22;20183;-93
2023/08/27 15:56:43;;;;;;;4.40;2.75;;;20.40;99.90;;;;;;9709935;22;20180;-93
2023/08/27 16:00:29;;;;;;;3.25;2.10;;;20.40;99.90;;;;;;9710664;22;20148;-93
2023/08/27 16:04:15;;;;;;;4.63;2.47;;;20.40;99.90;;;;;;9713243;22;20157;-92
2023/08/27 16:08:01;;;;;;;4.40;2.50;;;20.40;99.90;;;;;;9713074;22;20203;-92
2023/08/27 16:11:50;;;;;;;4.47;2.15;;;20.50;99.90;;;;;;9713450;22;20636;-92
2023/08/27 16:15:35;;;;;;;7.90;2.13;;;20.40;99.90;;;;;;9713172;22;20172;-93
2023/08/27 16:19:21;;;;;;;2.83;2.00;;;20.50;99.90;;;;;;9717931;22;20177;-94
2023/08/27 16:23:08;;;;;;;4.05;2.00;;;20.50;99.90;;;;;;9714053;22;20206;-92
2023/08/27 16:26:53;;;;;;;3.63;2.30;;;20.60;99.90;;;;;;9712765;22;20176;-92
2023/08/27 16:30:40;;;;;;;4.18;2.15;;;20.60;99.90;;;;;;9713312;22;20161;-92
2023/08/27 16:34:25;;;;;;;5.35;2.45;;;20.60;99.90;;;;;;9713323;22;20567;-92
2023/08/27 16:38:11;;;;;;;3.75;2.20;;;20.50;99.90;;;;;;9713194;22;20181;-91
2023/08/27 16:41:56;;;;;;;4.53;2.10;;;20.40;99.90;;;;;;9712828;22;20183;-92
2023/08/27 16:45:43;;;;;;;3.35;1.90;;;20.40;99.90;;;;;;9713086;22;20234;-92
2023/08/27 16:53:17;;;;;;;3.85;2.20;;;20.30;99.90;;;;;;9736527;22;20284;-87
2023/08/27 16:57:03;;;;;;;6.07;2.33;;;20.40;99.90;;;;;;9699917;22;20173;-88
2023/08/27 17:00:53;;;;;;;4.93;2.47;;;20.30;99.90;;;;;;9668536;23;20600;-87
2023/08/27 17:04:38;;;;;;;3.78;1.95;;;20.30;99.90;;;;;;9667950;23;20157;-87
2023/08/27 17:08:27;;;;;;;3.10;2.30;;;20.30;99.90;;;;;;9667507;23;20496;-89
2023/08/27 17:12:14;;;;;;;4.53;2.33;;;20.20;99.90;;;;;;9693541;23;20733;-88
2023/08/27 17:16:00;;;;;;;4.03;2.10;;;20.20;99.90;;;;;;9662707;23;20152;-88
2023/08/27 17:19:45;;;;;;;2.70;2.20;;;20.30;99.90;;;;;;9660809;23;20173;-87
2023/08/27 17:23:32;;;;;;;4.95;2.78;;;20.30;99.90;;;;;;9663137;23;20477;-88
2023/08/27 17:27:18;;;;;;;3.15;2.20;;;20.10;99.90;;;;;;9661163;22;20269;-87
2023/08/27 17:31:04;;;;;;;3.35;2.05;;;20.10;99.90;;;;;;9661496;23;20171;-87
2023/08/27 17:34:49;;;;;;;2.75;2.30;;;20.10;99.90;;;;;;9660685;23;20551;-89
2023/08/27 17:38:35;;;;;;;3.85;2.45;;;20.10;99.90;;;;;;9660703;23;20228;-88
2023/08/27 17:42:21;;;;;;;2.63;2.10;;;20.10;99.90;;;;;;9689378;23;20157;-88
2023/08/27 17:46:10;;;;;;;2.72;2.30;;;20.00;99.90;;;;;;9661352;22;20157;-88
2023/08/27 17:49:56;;;;;;;4.03;2.10;;;20.10;99.90;;;;;;9659643;23;20850;-88
2023/08/27 17:53:42;;;;;;;3.25;1.98;;;20.00;99.90;;;;;;9660804;23;20212;-88
2023/08/27 17:57:27;;;;;;;3.78;2.30;;;20.00;99.90;;;;;;9687214;22;20173;-88
2023/08/27 18:01:13;;;;;;;2.45;1.92;;;20.00;99.90;;;;;;9661869;23;20211;-84
2023/08/27 18:05:00;;;;;;;3.28;2.00;;;20.00;99.90;;;;;;9686858;23;20169;-89
2023/08/27 18:08:45;;;;;;;4.10;2.10;;;20.00;99.90;;;;;;9659873;23;20188;-86
2023/08/27 18:12:31;;;;;;;4.70;2.00;;;20.00;99.90;;;;;;9686958;23;20177;-87
2023/08/27 18:16:18;;;;;;;4.72;2.08;;;20.00;99.90;;;;;;9686692;22;20153;-88
2023/08/27 18:20:04;;;;;;;2.85;2.28;;;20.00;99.90;;;;;;9660592;23;20149;-87
2023/08/27 18:23:50;;;;;;;6.80;3.10;;;20.00;99.90;;;;;;9659940;23;20157;-87
2023/08/27 18:27:41;;;;;;;3.65;2.70;;;20.00;99.90;;;;;;9659565;22;20177;-88
2023/08/27 18:31:27;;;;;;;4.30;2.47;;;20.00;99.90;;;;;;9658077;23;20163;-87
2023/08/27 18:35:13;;;;;;;5.97;2.70;;;20.00;99.90;;;;;;9660052;23;20185;-86
2023/08/27 18:39:00;;;;;;;3.40;2.28;;;20.00;99.90;;;;;;9659577;23;20189;-88
2023/08/27 18:42:46;;;;;;;6.03;2.90;;;20.00;99.90;;;;;;9660720;23;20162;-87
2023/08/27 18:46:33;;;;;;;4.75;2.70;;;19.90;99.90;;;;;;9660067;22;20188;-89
2023/08/27 18:50:19;;;;;;;5.20;2.60;;;19.90;99.90;;;;;;9686921;23;20169;-88
2023/08/27 18:54:05;;;;;;;6.00;2.53;;;19.90;99.90;;;;;;9659603;23;20191;-88
2023/08/27 18:57:51;;;;;;;3.15;2.40;;;19.80;99.90;;;;;;9657729;23;20173;-88
2023/08/27 19:01:36;;;;;;;3.42;2.30;;;19.90;99.90;;;;;;9660891;23;20164;-88
2023/08/27 19:05:23;;;;;;;4.13;3.03;;;19.80;99.90;;;;;;9687185;23;20173;-87
2023/08/27 19:09:10;;;;;;;5.03;2.92;;;19.80;99.90;;;;;;9659973;23;20620;-87
2023/08/27 19:12:57;;;;;;;7.13;3.47;;;19.80;99.90;;;;;;9659988;23;20243;-88
2023/08/27 19:16:44;;;;;;;4.47;3.03;;;19.70;99.90;;;;;;9685583;22;20169;-88
2023/08/27 19:20:30;;;;;;;3.30;2.75;;;19.70;99.90;;;;;;9659307;23;20161;-88
2023/08/27 19:24:16;;;;;;;3.88;2.25;;;19.70;99.90;;;;;;9658278;23;20157;-87
2023/08/27 19:28:05;;;;;;;4.75;2.30;;;19.70;99.90;;;;;;9659802;23;20189;-88
2023/08/27 19:31:57;;;;;;;5.15;2.20;;;19.70;99.90;;;;;;9657199;23;20161;-88
2023/08/27 19:35:47;;;;;;;2.42;2.05;;;19.60;99.90;;;;;;9687111;23;20217;-87
2023/08/27 19:39:34;;;;;;;4.65;2.15;;;19.60;99.90;;;;;;9662706;23;20173;-88
2023/08/27 19:43:21;;;;;;;2.88;2.03;;;19.50;99.90;;;;;;9663540;23;20244;-88